This is the latest recevied weather packets stored in our database for station/object AE5EW. If no packets are shown the sender has not sent any weather packets the latest 10 day(s).
| Time | Temp. | Humidity | Pressure | Rain* | Wind** | Luminosity | Snow |
|---|---|---|---|---|---|---|---|
| 1788117190 | 33.33° C | 61% | 1019.3 hPa | 0 mm | - | - | - |
| 1788116886 | 32.22° C | 65% | 1019.5 hPa | 0 mm | - | - | - |
| 1788116581 | 31.11° C | 67% | 1019.7 hPa | 0 mm | - | - | - |
| 1788116279 | 31.67° C | 65% | 1019.5 hPa | 0 mm | - | - | - |
| 1788115975 | 32.22° C | 62% | 1019.5 hPa | 0 mm | - | - | - |
| 1788115675 | 32.22° C | 62% | 1019.5 hPa | 0 mm | - | - | - |
| 1788115374 | 31.11° C | 65% | 1019.7 hPa | 0 mm | - | - | - |
| 1788115070 | 31.67° C | 63% | 1019.8 hPa | 0 mm | - | - | - |
| 1788114764 | 32.78° C | 64% | 1019.6 hPa | 0 mm | - | - | - |
| 1788114465 | 32.78° C | 62% | 1019.8 hPa | 0 mm | - | - | - |
| 1788114161 | 32.22° C | 64% | 1020 hPa | 0 mm | - | - | - |
| 1788113857 | 31.11° C | 69% | 1019.7 hPa | 0 mm | - | - | - |
| 1788113552 | 31.11° C | 67% | 1020.2 hPa | 0 mm | - | - | - |
| 1788113251 | 32.22° C | 65% | 1020 hPa | 0 mm | - | - | - |
| 1788112946 | 32.78° C | 64% | 1020.1 hPa | 0 mm | - | - | - |
| 1788112645 | 31.67° C | 66% | 1020.2 hPa | 0 mm | - | - | - |
| 1788112341 | 30.56° C | 67% | 1020.2 hPa | 0 mm | - | - | - |
| 1788112035 | 30.56° C | 67% | 1020.2 hPa | 0 mm | - | - | - |
| 1788111731 | 31.11° C | 65% | 1020.3 hPa | 0 mm | - | - | - |
| 1788111430 | 31.67° C | 65% | 1020.4 hPa | 0 mm | - | - | - |
| 1788111126 | 32.22° C | 67% | 1020.5 hPa | 0 mm | - | - | - |
| 1788110822 | 32.22° C | 64% | 1020.5 hPa | 0 mm | - | - | - |
| 1788110519 | 32.78° C | 64% | 1020.6 hPa | 0 mm | - | - | - |
| 1788110219 | 32.78° C | 62% | 1020.6 hPa | 0 mm | - | - | - |
| 1788109914 | 32.22° C | 67% | 1020.6 hPa | 0 mm | - | - | - |
* Rain latest hour (hover to see other rain measurements)
** Current wind speed in m/s (hover to see current wind gust speed)